sensor_id;sensor_type;location;lat;lon;timestamp;P1;durP1;ratioP1;P2;durP2;ratioP2
55913;SDS011;58179;48.776;9.124;2023-04-01T00:01:34;3.45;;;1.60;;
55913;SDS011;58179;48.776;9.124;2023-04-01T00:04:00;7.05;;;1.70;;
55913;SDS011;58179;48.776;9.124;2023-04-01T00:06:27;2.75;;;1.63;;
55913;SDS011;58179;48.776;9.124;2023-04-01T00:08:53;3.55;;;1.80;;
55913;SDS011;58179;48.776;9.124;2023-04-01T00:11:19;5.37;;;1.57;;
55913;SDS011;58179;48.776;9.124;2023-04-01T00:13:46;4.57;;;1.60;;
55913;SDS011;58179;48.776;9.124;2023-04-01T00:16:14;5.65;;;1.63;;
55913;SDS011;58179;48.776;9.124;2023-04-01T00:18:41;6.38;;;1.77;;
55913;SDS011;58179;48.776;9.124;2023-04-01T00:21:06;5.25;;;1.60;;
55913;SDS011;58179;48.776;9.124;2023-04-01T00:23:34;5.43;;;1.75;;
55913;SDS011;58179;48.776;9.124;2023-04-01T00:26:01;5.30;;;1.67;;
55913;SDS011;58179;48.776;9.124;2023-04-01T00:28:28;6.93;;;1.80;;
55913;SDS011;58179;48.776;9.124;2023-04-01T00:30:54;4.68;;;1.70;;
55913;SDS011;58179;48.776;9.124;2023-04-01T00:33:21;5.35;;;1.80;;
55913;SDS011;58179;48.776;9.124;2023-04-01T00:35:47;7.47;;;1.92;;
55913;SDS011;58179;48.776;9.124;2023-04-01T00:38:13;4.20;;;1.92;;
55913;SDS011;58179;48.776;9.124;2023-04-01T00:40:40;6.20;;;2.13;;
55913;SDS011;58179;48.776;9.124;2023-04-01T00:43:09;7.45;;;1.83;;
55913;SDS011;58179;48.776;9.124;2023-04-01T00:45:39;8.67;;;2.17;;
55913;SDS011;58179;48.776;9.124;2023-04-01T00:48:09;7.57;;;1.85;;
55913;SDS011;58179;48.776;9.124;2023-04-01T00:50:42;7.57;;;1.90;;
55913;SDS011;58179;48.776;9.124;2023-04-01T00:53:13;5.88;;;1.83;;
55913;SDS011;58179;48.776;9.124;2023-04-01T00:55:42;4.25;;;1.83;;
55913;SDS011;58179;48.776;9.124;2023-04-01T00:58:16;7.47;;;1.73;;
55913;SDS011;58179;48.776;9.124;2023-04-01T01:00:46;4.75;;;1.50;;
55913;SDS011;58179;48.776;9.124;2023-04-01T01:03:15;3.70;;;1.70;;
55913;SDS011;58179;48.776;9.124;2023-04-01T01:05:52;6.70;;;2.00;;
55913;SDS011;58179;48.776;9.124;2023-04-01T01:09:03;4.90;;;2.00;;
55913;SDS011;58179;48.776;9.124;2023-04-01T01:11:47;8.63;;;1.80;;
55913;SDS011;58179;48.776;9.124;2023-04-01T01:14:25;6.75;;;1.83;;
55913;SDS011;58179;48.776;9.124;2023-04-01T01:17:04;4.72;;;1.80;;
55913;SDS011;58179;48.776;9.124;2023-04-01T01:19:43;10.70;;;2.22;;
55913;SDS011;58179;48.776;9.124;2023-04-01T01:22:38;8.25;;;2.00;;
55913;SDS011;58179;48.776;9.124;2023-04-01T01:25:31;6.85;;;1.90;;
55913;SDS011;58179;48.776;9.124;2023-04-01T01:28:09;7.03;;;1.60;;
55913;SDS011;58179;48.776;9.124;2023-04-01T01:30:50;3.85;;;1.80;;
55913;SDS011;58179;48.776;9.124;2023-04-01T01:33:30;6.28;;;1.75;;
55913;SDS011;58179;48.776;9.124;2023-04-01T01:36:10;5.17;;;1.70;;
55913;SDS011;58179;48.776;9.124;2023-04-01T01:38:39;4.80;;;1.47;;
55913;SDS011;58179;48.776;9.124;2023-04-01T01:41:07;11.30;;;2.35;;
55913;SDS011;58179;48.776;9.124;2023-04-01T01:43:35;2.80;;;1.60;;
55913;SDS011;58179;48.776;9.124;2023-04-01T01:46:05;8.27;;;2.10;;
55913;SDS011;58179;48.776;9.124;2023-04-01T01:48:36;5.17;;;1.77;;
55913;SDS011;58179;48.776;9.124;2023-04-01T01:51:03;5.75;;;1.60;;
55913;SDS011;58179;48.776;9.124;2023-04-01T01:53:32;6.80;;;1.70;;
55913;SDS011;58179;48.776;9.124;2023-04-01T01:55:58;5.85;;;1.70;;
55913;SDS011;58179;48.776;9.124;2023-04-01T01:58:25;5.30;;;2.00;;
55913;SDS011;58179;48.776;9.124;2023-04-01T02:00:55;5.78;;;1.50;;
55913;SDS011;58179;48.776;9.124;2023-04-01T02:03:26;6.25;;;1.63;;
55913;SDS011;58179;48.776;9.124;2023-04-01T02:05:56;9.63;;;1.73;;
55913;SDS011;58179;48.776;9.124;2023-04-01T02:08:25;2.28;;;1.33;;
55913;SDS011;58179;48.776;9.124;2023-04-01T02:10:57;5.20;;;1.70;;
55913;SDS011;58179;48.776;9.124;2023-04-01T02:13:28;3.38;;;1.80;;
55913;SDS011;58179;48.776;9.124;2023-04-01T02:16:00;2.30;;;1.33;;
55913;SDS011;58179;48.776;9.124;2023-04-01T02:18:34;5.53;;;1.63;;
55913;SDS011;58179;48.776;9.124;2023-04-01T02:21:03;4.45;;;1.48;;
55913;SDS011;58179;48.776;9.124;2023-04-01T02:23:31;4.82;;;1.48;;
55913;SDS011;58179;48.776;9.124;2023-04-01T02:26:02;5.82;;;1.67;;
55913;SDS011;58179;48.776;9.124;2023-04-01T02:28:30;5.60;;;1.50;;
55913;SDS011;58179;48.776;9.124;2023-04-01T02:30:58;5.55;;;1.75;;
55913;SDS011;58179;48.776;9.124;2023-04-01T02:33:27;6.55;;;1.60;;
55913;SDS011;58179;48.776;9.124;2023-04-01T02:35:54;5.63;;;1.60;;
55913;SDS011;58179;48.776;9.124;2023-04-01T02:38:20;4.88;;;1.30;;
55913;SDS011;58179;48.776;9.124;2023-04-01T02:40:48;4.65;;;1.58;;
55913;SDS011;58179;48.776;9.124;2023-04-01T02:43:17;3.70;;;1.27;;
55913;SDS011;58179;48.776;9.124;2023-04-01T02:45:44;3.35;;;1.58;;
55913;SDS011;58179;48.776;9.124;2023-04-01T02:48:10;4.20;;;1.38;;
55913;SDS011;58179;48.776;9.124;2023-04-01T02:50:37;3.63;;;1.40;;
55913;SDS011;58179;48.776;9.124;2023-04-01T02:53:03;5.32;;;1.40;;
55913;SDS011;58179;48.776;9.124;2023-04-01T02:55:31;3.40;;;1.40;;
55913;SDS011;58179;48.776;9.124;2023-04-01T02:57:57;2.28;;;1.27;;
55913;SDS011;58179;48.776;9.124;2023-04-01T03:00:24;4.30;;;1.40;;
55913;SDS011;58179;48.776;9.124;2023-04-01T03:02:51;4.30;;;1.23;;
55913;SDS011;58179;48.776;9.124;2023-04-01T03:05:17;3.05;;;1.30;;
55913;SDS011;58179;48.776;9.124;2023-04-01T03:07:43;1.83;;;1.30;;
55913;SDS011;58179;48.776;9.124;2023-04-01T03:10:09;4.40;;;1.40;;
55913;SDS011;58179;48.776;9.124;2023-04-01T03:12:35;3.85;;;1.40;;
55913;SDS011;58179;48.776;9.124;2023-04-01T03:15:01;4.05;;;1.45;;
55913;SDS011;58179;48.776;9.124;2023-04-01T03:17:29;2.92;;;1.70;;
55913;SDS011;58179;48.776;9.124;2023-04-01T03:19:55;8.98;;;1.50;;
55913;SDS011;58179;48.776;9.124;2023-04-01T03:22:21;3.72;;;1.30;;
55913;SDS011;58179;48.776;9.124;2023-04-01T03:24:47;2.00;;;1.30;;
55913;SDS011;58179;48.776;9.124;2023-04-01T03:27:13;3.00;;;1.35;;
55913;SDS011;58179;48.776;9.124;2023-04-01T03:29:39;4.75;;;1.35;;
55913;SDS011;58179;48.776;9.124;2023-04-01T03:32:05;3.20;;;1.40;;
55913;SDS011;58179;48.776;9.124;2023-04-01T03:34:33;4.22;;;1.30;;
55913;SDS011;58179;48.776;9.124;2023-04-01T03:36:59;4.88;;;1.20;;
55913;SDS011;58179;48.776;9.124;2023-04-01T03:39:25;3.88;;;1.20;;
55913;SDS011;58179;48.776;9.124;2023-04-01T03:41:51;4.18;;;1.30;;
55913;SDS011;58179;48.776;9.124;2023-04-01T03:44:17;1.33;;;1.17;;
55913;SDS011;58179;48.776;9.124;2023-04-01T03:46:43;1.90;;;1.27;;
55913;SDS011;58179;48.776;9.124;2023-04-01T03:49:09;4.30;;;1.40;;
55913;SDS011;58179;48.776;9.124;2023-04-01T03:51:38;3.92;;;1.35;;
55913;SDS011;58179;48.776;9.124;2023-04-01T03:54:04;3.03;;;1.30;;
55913;SDS011;58179;48.776;9.124;2023-04-01T03:56:31;2.42;;;1.27;;
55913;SDS011;58179;48.776;9.124;2023-04-01T03:58:56;1.50;;;1.20;;
55913;SDS011;58179;48.776;9.124;2023-04-01T04:01:22;1.48;;;1.10;;
55913;SDS011;58179;48.776;9.124;2023-04-01T04:03:49;2.60;;;1.38;;
55913;SDS011;58179;48.776;9.124;2023-04-01T04:06:16;4.15;;;1.30;;
55913;SDS011;58179;48.776;9.124;2023-04-01T04:08:45;4.22;;;1.30;;
55913;SDS011;58179;48.776;9.124;2023-04-01T04:11:11;3.95;;;1.30;;
55913;SDS011;58179;48.776;9.124;2023-04-01T04:13:37;3.90;;;1.30;;
55913;SDS011;58179;48.776;9.124;2023-04-01T04:16:03;6.35;;;1.50;;
55913;SDS011;58179;48.776;9.124;2023-04-01T04:18:30;3.80;;;1.42;;
55913;SDS011;58179;48.776;9.124;2023-04-01T04:20:56;3.83;;;1.45;;
55913;SDS011;58179;48.776;9.124;2023-04-01T04:23:22;2.07;;;1.50;;
55913;SDS011;58179;48.776;9.124;2023-04-01T04:25:56;4.75;;;1.40;;
55913;SDS011;58179;48.776;9.124;2023-04-01T04:28:25;6.45;;;1.58;;
55913;SDS011;58179;48.776;9.124;2023-04-01T04:30:51;3.75;;;1.40;;
55913;SDS011;58179;48.776;9.124;2023-04-01T04:33:17;2.97;;;1.25;;
55913;SDS011;58179;48.776;9.124;2023-04-01T04:35:43;2.95;;;1.30;;
55913;SDS011;58179;48.776;9.124;2023-04-01T04:38:09;4.13;;;1.33;;
55913;SDS011;58179;48.776;9.124;2023-04-01T04:40:35;5.40;;;1.63;;
55913;SDS011;58179;48.776;9.124;2023-04-01T04:43:03;2.05;;;1.17;;
55913;SDS011;58179;48.776;9.124;2023-04-01T04:45:29;2.40;;;1.40;;
55913;SDS011;58179;48.776;9.124;2023-04-01T04:47:56;2.53;;;1.23;;
55913;SDS011;58179;48.776;9.124;2023-04-01T04:50:23;3.72;;;1.33;;
55913;SDS011;58179;48.776;9.124;2023-04-01T04:52:50;3.30;;;1.50;;
55913;SDS011;58179;48.776;9.124;2023-04-01T04:55:16;4.30;;;1.30;;
55913;SDS011;58179;48.776;9.124;2023-04-01T04:57:42;2.55;;;1.40;;
55913;SDS011;58179;48.776;9.124;2023-04-01T05:00:10;2.75;;;1.30;;
55913;SDS011;58179;48.776;9.124;2023-04-01T05:02:37;4.85;;;1.50;;
55913;SDS011;58179;48.776;9.124;2023-04-01T05:05:03;4.07;;;1.30;;
55913;SDS011;58179;48.776;9.124;2023-04-01T05:07:30;3.53;;;1.40;;
55913;SDS011;58179;48.776;9.124;2023-04-01T05:09:56;3.50;;;1.30;;
55913;SDS011;58179;48.776;9.124;2023-04-01T05:12:22;3.10;;;1.30;;
55913;SDS011;58179;48.776;9.124;2023-04-01T05:14:47;2.08;;;1.30;;
55913;SDS011;58179;48.776;9.124;2023-04-01T05:17:15;2.88;;;1.27;;
55913;SDS011;58179;48.776;9.124;2023-04-01T05:19:41;6.97;;;1.43;;
55913;SDS011;58179;48.776;9.124;2023-04-01T05:22:06;6.30;;;2.08;;
55913;SDS011;58179;48.776;9.124;2023-04-01T05:24:32;3.95;;;1.63;;
55913;SDS011;58179;48.776;9.124;2023-04-01T05:26:59;5.15;;;1.63;;
55913;SDS011;58179;48.776;9.124;2023-04-01T05:29:25;4.23;;;1.63;;
55913;SDS011;58179;48.776;9.124;2023-04-01T05:31:51;3.67;;;1.40;;
55913;SDS011;58179;48.776;9.124;2023-04-01T05:34:18;5.97;;;1.75;;
55913;SDS011;58179;48.776;9.124;2023-04-01T05:36:44;4.63;;;1.60;;
55913;SDS011;58179;48.776;9.124;2023-04-01T05:39:10;4.65;;;1.58;;
55913;SDS011;58179;48.776;9.124;2023-04-01T05:41:36;5.37;;;1.73;;
55913;SDS011;58179;48.776;9.124;2023-04-01T05:44:03;4.97;;;1.60;;
55913;SDS011;58179;48.776;9.124;2023-04-01T05:46:30;6.13;;;1.70;;
55913;SDS011;58179;48.776;9.124;2023-04-01T05:48:56;5.20;;;2.05;;
55913;SDS011;58179;48.776;9.124;2023-04-01T05:51:23;6.75;;;1.60;;
55913;SDS011;58179;48.776;9.124;2023-04-01T05:53:49;5.60;;;1.75;;
55913;SDS011;58179;48.776;9.124;2023-04-01T05:56:15;3.42;;;1.73;;
55913;SDS011;58179;48.776;9.124;2023-04-01T05:58:41;3.83;;;1.50;;
55913;SDS011;58179;48.776;9.124;2023-04-01T06:01:08;2.30;;;1.47;;
55913;SDS011;58179;48.776;9.124;2023-04-01T06:03:36;5.53;;;1.60;;
55913;SDS011;58179;48.776;9.124;2023-04-01T06:06:02;3.35;;;1.50;;
55913;SDS011;58179;48.776;9.124;2023-04-01T06:08:30;3.50;;;1.33;;
55913;SDS011;58179;48.776;9.124;2023-04-01T06:11:06;4.87;;;1.53;;
55913;SDS011;58179;48.776;9.124;2023-04-01T06:13:57;4.65;;;1.60;;
55913;SDS011;58179;48.776;9.124;2023-04-01T06:16:39;4.25;;;1.50;;
55913;SDS011;58179;48.776;9.124;2023-04-01T06:19:29;3.80;;;1.70;;
55913;SDS011;58179;48.776;9.124;2023-04-01T06:22:26;6.93;;;1.70;;
55913;SDS011;58179;48.776;9.124;2023-04-01T06:25:21;3.80;;;1.60;;
55913;SDS011;58179;48.776;9.124;2023-04-01T06:28:29;4.30;;;1.45;;
55913;SDS011;58179;48.776;9.124;2023-04-01T06:31:19;7.03;;;1.70;;
55913;SDS011;58179;48.776;9.124;2023-04-01T06:34:01;3.78;;;1.65;;
55913;SDS011;58179;48.776;9.124;2023-04-01T06:36:57;3.35;;;1.50;;
55913;SDS011;58179;48.776;9.124;2023-04-01T06:39:42;3.95;;;1.63;;
55913;SDS011;58179;48.776;9.124;2023-04-01T06:42:37;5.07;;;1.60;;
55913;SDS011;58179;48.776;9.124;2023-04-01T06:45:20;8.00;;;1.80;;
55913;SDS011;58179;48.776;9.124;2023-04-01T06:48:04;3.70;;;1.40;;
55913;SDS011;58179;48.776;9.124;2023-04-01T06:50:48;4.47;;;1.45;;
55913;SDS011;58179;48.776;9.124;2023-04-01T06:53:23;2.80;;;1.30;;
55913;SDS011;58179;48.776;9.124;2023-04-01T06:55:59;4.17;;;1.77;;
55913;SDS011;58179;48.776;9.124;2023-04-01T06:58:35;5.40;;;1.30;;
55913;SDS011;58179;48.776;9.124;2023-04-01T07:01:06;2.75;;;1.20;;
55913;SDS011;58179;48.776;9.124;2023-04-01T07:03:38;5.10;;;1.40;;
55913;SDS011;58179;48.776;9.124;2023-04-01T07:06:10;3.75;;;1.40;;
55913;SDS011;58179;48.776;9.124;2023-04-01T07:08:45;3.40;;;1.40;;
55913;SDS011;58179;48.776;9.124;2023-04-01T07:11:15;4.30;;;1.30;;
55913;SDS011;58179;48.776;9.124;2023-04-01T07:13:53;3.17;;;1.35;;
55913;SDS011;58179;48.776;9.124;2023-04-01T07:16:24;6.28;;;1.45;;
55913;SDS011;58179;48.776;9.124;2023-04-01T07:18:56;4.80;;;1.48;;
55913;SDS011;58179;48.776;9.124;2023-04-01T07:21:29;2.40;;;1.30;;
55913;SDS011;58179;48.776;9.124;2023-04-01T07:24:01;3.40;;;1.20;;
55913;SDS011;58179;48.776;9.124;2023-04-01T07:26:31;2.78;;;1.40;;
55913;SDS011;58179;48.776;9.124;2023-04-01T07:28:58;2.97;;;1.48;;
55913;SDS011;58179;48.776;9.124;2023-04-01T07:31:29;3.63;;;1.27;;
55913;SDS011;58179;48.776;9.124;2023-04-01T07:34:08;4.22;;;1.40;;
55913;SDS011;58179;48.776;9.124;2023-04-01T07:36:42;4.85;;;1.52;;
55913;SDS011;58179;48.776;9.124;2023-04-01T07:39:17;4.27;;;1.40;;
55913;SDS011;58179;48.776;9.124;2023-04-01T07:41:56;3.10;;;1.30;;
55913;SDS011;58179;48.776;9.124;2023-04-01T07:44:33;3.67;;;1.35;;
55913;SDS011;58179;48.776;9.124;2023-04-01T07:47:16;6.15;;;1.48;;
55913;SDS011;58179;48.776;9.124;2023-04-01T07:50:02;2.72;;;1.30;;
55913;SDS011;58179;48.776;9.124;2023-04-01T07:52:40;7.85;;;1.40;;
55913;SDS011;58179;48.776;9.124;2023-04-01T07:55:14;4.20;;;1.60;;
55913;SDS011;58179;48.776;9.124;2023-04-01T07:57:48;4.85;;;1.38;;
55913;SDS011;58179;48.776;9.124;2023-04-01T08:00:24;2.05;;;1.27;;
55913;SDS011;58179;48.776;9.124;2023-04-01T08:02:58;4.25;;;1.42;;
55913;SDS011;58179;48.776;9.124;2023-04-01T08:05:47;3.33;;;1.40;;
55913;SDS011;58179;48.776;9.124;2023-04-01T08:08:23;3.25;;;1.20;;
55913;SDS011;58179;48.776;9.124;2023-04-01T08:11:02;5.03;;;1.60;;
55913;SDS011;58179;48.776;9.124;2023-04-01T08:13:39;3.90;;;1.30;;
55913;SDS011;58179;48.776;9.124;2023-04-01T08:16:17;4.22;;;1.45;;
55913;SDS011;58179;48.776;9.124;2023-04-01T08:18:53;4.05;;;1.17;;
55913;SDS011;58179;48.776;9.124;2023-04-01T08:21:29;3.07;;;1.37;;
55913;SDS011;58179;48.776;9.124;2023-04-01T08:24:05;1.88;;;1.20;;
55913;SDS011;58179;48.776;9.124;2023-04-01T08:26:43;3.03;;;1.15;;
55913;SDS011;58179;48.776;9.124;2023-04-01T08:29:14;2.42;;;1.20;;
55913;SDS011;58179;48.776;9.124;2023-04-01T08:31:48;5.03;;;1.40;;
55913;SDS011;58179;48.776;9.124;2023-04-01T08:34:21;5.32;;;1.50;;
55913;SDS011;58179;48.776;9.124;2023-04-01T08:36:57;2.28;;;1.40;;
55913;SDS011;58179;48.776;9.124;2023-04-01T08:39:29;2.47;;;1.30;;
55913;SDS011;58179;48.776;9.124;2023-04-01T08:45:15;3.63;;;1.60;;
55913;SDS011;58179;48.776;9.124;2023-04-01T08:51:28;3.33;;;1.35;;
55913;SDS011;58179;48.776;9.124;2023-04-01T08:54:34;3.00;;;1.50;;
55913;SDS011;58179;48.776;9.124;2023-04-01T08:57:19;3.58;;;1.23;;
55913;SDS011;58179;48.776;9.124;2023-04-01T08:59:57;3.13;;;1.47;;
55913;SDS011;58179;48.776;9.124;2023-04-01T09:06:12;3.83;;;1.55;;
55913;SDS011;58179;48.776;9.124;2023-04-01T09:09:01;2.60;;;1.30;;
55913;SDS011;58179;48.776;9.124;2023-04-01T09:12:13;1.90;;;1.60;;
55913;SDS011;58179;48.776;9.124;2023-04-01T09:14:54;2.53;;;1.40;;
55913;SDS011;58179;48.776;9.124;2023-04-01T09:17:49;2.65;;;1.20;;
55913;SDS011;58179;48.776;9.124;2023-04-01T09:20:52;2.28;;;1.10;;
55913;SDS011;58179;48.776;9.124;2023-04-01T09:23:47;1.50;;;1.20;;
55913;SDS011;58179;48.776;9.124;2023-04-01T09:26:56;2.97;;;1.27;;
55913;SDS011;58179;48.776;9.124;2023-04-01T09:29:38;1.70;;;1.03;;
55913;SDS011;58179;48.776;9.124;2023-04-01T09:32:29;1.00;;;0.90;;
55913;SDS011;58179;48.776;9.124;2023-04-01T09:35:22;2.00;;;1.10;;
55913;SDS011;58179;48.776;9.124;2023-04-01T09:37:53;1.15;;;1.02;;
55913;SDS011;58179;48.776;9.124;2023-04-01T09:40:33;1.10;;;0.95;;
55913;SDS011;58179;48.776;9.124;2023-04-01T09:43:16;2.20;;;1.10;;
55913;SDS011;58179;48.776;9.124;2023-04-01T09:45:56;1.70;;;1.00;;
55913;SDS011;58179;48.776;9.124;2023-04-01T09:48:40;2.00;;;1.10;;
55913;SDS011;58179;48.776;9.124;2023-04-01T09:51:27;1.27;;;0.97;;
55913;SDS011;58179;48.776;9.124;2023-04-01T09:54:07;1.48;;;1.00;;
55913;SDS011;58179;48.776;9.124;2023-04-01T09:57:09;0.98;;;0.98;;
55913;SDS011;58179;48.776;9.124;2023-04-01T10:16:42;1.25;;;1.02;;
55913;SDS011;58179;48.776;9.124;2023-04-01T10:19:49;0.98;;;0.90;;
55913;SDS011;58179;48.776;9.124;2023-04-01T10:23:03;1.00;;;0.90;;
55913;SDS011;58179;48.776;9.124;2023-04-01T10:25:53;1.60;;;1.00;;
55913;SDS011;58179;48.776;9.124;2023-04-01T10:32:04;0.90;;;0.90;;
55913;SDS011;58179;48.776;9.124;2023-04-01T10:35:28;0.85;;;0.80;;
55913;SDS011;58179;48.776;9.124;2023-04-01T10:38:30;1.02;;;0.80;;
55913;SDS011;58179;48.776;9.124;2023-04-01T10:41:45;0.88;;;0.80;;
55913;SDS011;58179;48.776;9.124;2023-04-01T10:44:58;1.20;;;0.90;;
55913;SDS011;58179;48.776;9.124;2023-04-01T10:47:53;0.80;;;0.80;;
55913;SDS011;58179;48.776;9.124;2023-04-01T10:53:44;0.70;;;0.70;;
55913;SDS011;58179;48.776;9.124;2023-04-01T10:56:42;0.80;;;0.80;;
55913;SDS011;58179;48.776;9.124;2023-04-01T11:02:55;0.70;;;0.70;;
55913;SDS011;58179;48.776;9.124;2023-04-01T11:09:36;0.80;;;0.80;;
55913;SDS011;58179;48.776;9.124;2023-04-01T11:20:07;0.80;;;0.80;;
55913;SDS011;58179;48.776;9.124;2023-04-01T11:23:12;0.82;;;0.82;;
55913;SDS011;58179;48.776;9.124;2023-04-01T11:25:56;1.10;;;0.90;;
55913;SDS011;58179;48.776;9.124;2023-04-01T11:28:45;0.80;;;0.80;;
55913;SDS011;58179;48.776;9.124;2023-04-01T11:32:02;0.80;;;0.80;;
55913;SDS011;58179;48.776;9.124;2023-04-01T11:34:51;1.00;;;0.90;;
55913;SDS011;58179;48.776;9.124;2023-04-01T11:37:35;0.80;;;0.80;;
55913;SDS011;58179;48.776;9.124;2023-04-01T11:40:12;0.80;;;0.80;;
55913;SDS011;58179;48.776;9.124;2023-04-01T11:42:49;1.08;;;0.88;;
55913;SDS011;58179;48.776;9.124;2023-04-01T11:45:28;0.80;;;0.80;;
55913;SDS011;58179;48.776;9.124;2023-04-01T11:50:58;1.20;;;0.80;;
55913;SDS011;58179;48.776;9.124;2023-04-01T11:53:47;0.70;;;0.70;;
55913;SDS011;58179;48.776;9.124;2023-04-01T11:56:29;1.15;;;0.90;;
55913;SDS011;58179;48.776;9.124;2023-04-01T11:59:29;0.70;;;0.70;;
55913;SDS011;58179;48.776;9.124;2023-04-01T12:02:40;1.90;;;0.88;;
55913;SDS011;58179;48.776;9.124;2023-04-01T12:05:24;1.63;;;0.80;;
55913;SDS011;58179;48.776;9.124;2023-04-01T12:08:09;0.93;;;0.93;;
55913;SDS011;58179;48.776;9.124;2023-04-01T12:10:52;1.15;;;1.08;;
55913;SDS011;58179;48.776;9.124;2023-04-01T12:13:29;0.80;;;0.80;;
55913;SDS011;58179;48.776;9.124;2023-04-01T12:16:11;0.98;;;0.82;;
55913;SDS011;58179;48.776;9.124;2023-04-01T12:18:53;0.90;;;0.90;;
55913;SDS011;58179;48.776;9.124;2023-04-01T12:21:28;0.90;;;0.90;;
55913;SDS011;58179;48.776;9.124;2023-04-01T12:27:27;0.70;;;0.70;;
55913;SDS011;58179;48.776;9.124;2023-04-01T12:30:10;0.85;;;0.85;;
55913;SDS011;58179;48.776;9.124;2023-04-01T12:36:31;0.80;;;0.80;;
55913;SDS011;58179;48.776;9.124;2023-04-01T12:39:14;0.77;;;0.77;;
55913;SDS011;58179;48.776;9.124;2023-04-01T12:41:59;1.67;;;0.70;;
55913;SDS011;58179;48.776;9.124;2023-04-01T12:44:39;1.40;;;0.80;;
55913;SDS011;58179;48.776;9.124;2023-04-01T12:47:26;0.70;;;0.70;;
55913;SDS011;58179;48.776;9.124;2023-04-01T12:50:44;0.80;;;0.80;;
55913;SDS011;58179;48.776;9.124;2023-04-01T12:53:39;2.00;;;0.80;;
55913;SDS011;58179;48.776;9.124;2023-04-01T12:56:37;0.70;;;0.70;;
55913;SDS011;58179;48.776;9.124;2023-04-01T12:59:27;0.70;;;0.70;;
55913;SDS011;58179;48.776;9.124;2023-04-01T13:02:13;0.70;;;0.70;;
55913;SDS011;58179;48.776;9.124;2023-04-01T13:05:10;0.70;;;0.70;;
55913;SDS011;58179;48.776;9.124;2023-04-01T13:07:53;0.80;;;0.80;;
55913;SDS011;58179;48.776;9.124;2023-04-01T13:10:38;1.00;;;0.70;;
55913;SDS011;58179;48.776;9.124;2023-04-01T13:13:30;0.80;;;0.80;;
55913;SDS011;58179;48.776;9.124;2023-04-01T13:16:19;0.60;;;0.60;;
55913;SDS011;58179;48.776;9.124;2023-04-01T13:18:52;0.80;;;0.80;;
55913;SDS011;58179;48.776;9.124;2023-04-01T13:21:29;0.60;;;0.60;;
55913;SDS011;58179;48.776;9.124;2023-04-01T13:24:09;0.75;;;0.75;;
55913;SDS011;58179;48.776;9.124;2023-04-01T13:26:51;0.95;;;0.95;;
55913;SDS011;58179;48.776;9.124;2023-04-01T13:29:25;0.70;;;0.70;;
55913;SDS011;58179;48.776;9.124;2023-04-01T13:32:04;0.70;;;0.70;;
55913;SDS011;58179;48.776;9.124;2023-04-01T13:34:47;2.53;;;0.80;;
55913;SDS011;58179;48.776;9.124;2023-04-01T13:37:27;0.70;;;0.70;;
55913;SDS011;58179;48.776;9.124;2023-04-01T13:40:16;0.70;;;0.70;;
55913;SDS011;58179;48.776;9.124;2023-04-01T13:42:57;0.70;;;0.70;;
55913;SDS011;58179;48.776;9.124;2023-04-01T13:45:29;0.67;;;0.67;;
55913;SDS011;58179;48.776;9.124;2023-04-01T13:48:16;0.70;;;0.60;;
55913;SDS011;58179;48.776;9.124;2023-04-01T13:55:05;0.90;;;0.90;;
55913;SDS011;58179;48.776;9.124;2023-04-01T13:58:15;0.60;;;0.60;;
55913;SDS011;58179;48.776;9.124;2023-04-01T14:01:05;0.70;;;0.70;;
55913;SDS011;58179;48.776;9.124;2023-04-01T14:03:39;0.68;;;0.68;;
55913;SDS011;58179;48.776;9.124;2023-04-01T14:06:45;0.70;;;0.70;;
55913;SDS011;58179;48.776;9.124;2023-04-01T14:09:35;0.60;;;0.60;;
55913;SDS011;58179;48.776;9.124;2023-04-01T14:12:35;0.60;;;0.60;;
55913;SDS011;58179;48.776;9.124;2023-04-01T14:15:16;0.80;;;0.80;;
55913;SDS011;58179;48.776;9.124;2023-04-01T14:18:24;0.80;;;0.80;;
55913;SDS011;58179;48.776;9.124;2023-04-01T14:21:13;0.70;;;0.70;;
55913;SDS011;58179;48.776;9.124;2023-04-01T14:30:13;0.70;;;0.70;;
55913;SDS011;58179;48.776;9.124;2023-04-01T14:33:15;0.80;;;0.80;;
55913;SDS011;58179;48.776;9.124;2023-04-01T14:36:02;0.90;;;0.80;;
55913;SDS011;58179;48.776;9.124;2023-04-01T14:39:29;0.70;;;0.70;;
55913;SDS011;58179;48.776;9.124;2023-04-01T14:42:16;0.80;;;0.80;;
55913;SDS011;58179;48.776;9.124;2023-04-01T14:48:33;0.80;;;0.80;;
55913;SDS011;58179;48.776;9.124;2023-04-01T14:51:10;0.80;;;0.80;;
55913;SDS011;58179;48.776;9.124;2023-04-01T14:53:44;0.80;;;0.80;;
55913;SDS011;58179;48.776;9.124;2023-04-01T14:56:38;0.88;;;0.88;;
55913;SDS011;58179;48.776;9.124;2023-04-01T14:59:07;0.70;;;0.70;;
55913;SDS011;58179;48.776;9.124;2023-04-01T15:01:52;0.70;;;0.70;;
55913;SDS011;58179;48.776;9.124;2023-04-01T15:04:37;0.77;;;0.70;;
55913;SDS011;58179;48.776;9.124;2023-04-01T15:13:55;0.85;;;0.85;;
55913;SDS011;58179;48.776;9.124;2023-04-01T15:17:00;0.90;;;0.80;;
55913;SDS011;58179;48.776;9.124;2023-04-01T15:19:44;0.70;;;0.70;;
55913;SDS011;58179;48.776;9.124;2023-04-01T15:22:36;0.80;;;0.80;;
55913;SDS011;58179;48.776;9.124;2023-04-01T15:25:22;0.80;;;0.80;;
55913;SDS011;58179;48.776;9.124;2023-04-01T15:28:06;0.80;;;0.80;;
55913;SDS011;58179;48.776;9.124;2023-04-01T15:30:46;0.80;;;0.80;;
55913;SDS011;58179;48.776;9.124;2023-04-01T15:33:24;0.80;;;0.80;;
55913;SDS011;58179;48.776;9.124;2023-04-01T15:36:12;0.90;;;0.90;;
55913;SDS011;58179;48.776;9.124;2023-04-01T15:38:52;0.75;;;0.75;;
55913;SDS011;58179;48.776;9.124;2023-04-01T15:41:28;0.80;;;0.80;;
55913;SDS011;58179;48.776;9.124;2023-04-01T15:44:03;1.15;;;0.80;;
55913;SDS011;58179;48.776;9.124;2023-04-01T15:46:53;1.00;;;0.90;;
55913;SDS011;58179;48.776;9.124;2023-04-01T15:49:28;0.80;;;0.80;;
55913;SDS011;58179;48.776;9.124;2023-04-01T15:52:07;0.97;;;0.80;;
55913;SDS011;58179;48.776;9.124;2023-04-01T15:54:52;0.88;;;0.88;;
55913;SDS011;58179;48.776;9.124;2023-04-01T15:57:48;0.80;;;0.80;;
55913;SDS011;58179;48.776;9.124;2023-04-01T16:00:41;0.80;;;0.80;;
55913;SDS011;58179;48.776;9.124;2023-04-01T16:03:17;1.20;;;0.90;;
55913;SDS011;58179;48.776;9.124;2023-04-01T16:06:01;0.82;;;0.82;;
55913;SDS011;58179;48.776;9.124;2023-04-01T16:09:03;0.80;;;0.80;;
55913;SDS011;58179;48.776;9.124;2023-04-01T16:11:47;0.95;;;0.82;;
55913;SDS011;58179;48.776;9.124;2023-04-01T16:14:25;1.05;;;0.77;;
55913;SDS011;58179;48.776;9.124;2023-04-01T16:17:08;0.80;;;0.80;;
55913;SDS011;58179;48.776;9.124;2023-04-01T16:20:00;0.82;;;0.82;;
55913;SDS011;58179;48.776;9.124;2023-04-01T16:22:38;1.60;;;0.90;;
55913;SDS011;58179;48.776;9.124;2023-04-01T16:25:17;0.90;;;0.90;;
55913;SDS011;58179;48.776;9.124;2023-04-01T16:27:58;1.10;;;1.00;;
55913;SDS011;58179;48.776;9.124;2023-04-01T16:30:42;0.85;;;0.70;;
55913;SDS011;58179;48.776;9.124;2023-04-01T16:33:14;0.80;;;0.80;;
55913;SDS011;58179;48.776;9.124;2023-04-01T16:35:47;1.05;;;0.80;;
55913;SDS011;58179;48.776;9.124;2023-04-01T16:38:23;1.20;;;0.95;;
55913;SDS011;58179;48.776;9.124;2023-04-01T16:41:07;2.38;;;1.05;;
55913;SDS011;58179;48.776;9.124;2023-04-01T16:43:42;0.98;;;0.80;;
55913;SDS011;58179;48.776;9.124;2023-04-01T16:46:27;1.15;;;0.80;;
55913;SDS011;58179;48.776;9.124;2023-04-01T16:49:02;1.60;;;0.80;;
55913;SDS011;58179;48.776;9.124;2023-04-01T16:51:48;1.30;;;0.90;;
55913;SDS011;58179;48.776;9.124;2023-04-01T16:54:30;1.73;;;1.00;;
55913;SDS011;58179;48.776;9.124;2023-04-01T16:57:12;3.65;;;1.33;;
55913;SDS011;58179;48.776;9.124;2023-04-01T16:59:47;2.03;;;1.00;;
55913;SDS011;58179;48.776;9.124;2023-04-01T17:02:20;1.23;;;0.90;;
55913;SDS011;58179;48.776;9.124;2023-04-01T17:04:53;0.80;;;0.80;;
55913;SDS011;58179;48.776;9.124;2023-04-01T17:07:28;1.40;;;1.00;;
55913;SDS011;58179;48.776;9.124;2023-04-01T17:13:18;3.65;;;1.10;;
55913;SDS011;58179;48.776;9.124;2023-04-01T17:16:10;1.77;;;1.15;;